sensor_id;sensor_type;location;lat;lon;timestamp;pressure;altitude;pressure_sealevel;temperature;humidity
22930;BME280;11630;42.660;23.292;2023-04-12T00:00:58;68593.40;;;9.58;100.00
22930;BME280;11630;42.660;23.292;2023-04-12T00:03:29;68590.69;;;9.58;100.00
22930;BME280;11630;42.660;23.292;2023-04-12T00:06:01;68590.95;;;9.57;100.00
22930;BME280;11630;42.660;23.292;2023-04-12T00:08:31;68589.33;;;9.58;100.00
22930;BME280;11630;42.660;23.292;2023-04-12T00:11:03;68580.91;;;9.52;100.00
22930;BME280;11630;42.660;23.292;2023-04-12T00:13:34;68585.53;;;9.57;100.00
22930;BME280;11630;42.660;23.292;2023-04-12T00:16:08;68586.89;;;9.57;100.00
22930;BME280;11630;42.660;23.292;2023-04-12T00:18:39;68586.63;;;9.58;100.00
22930;BME280;11630;42.660;23.292;2023-04-12T00:21:09;68587.42;;;9.55;100.00
22930;BME280;11630;42.660;23.292;2023-04-12T00:23:40;68586.06;;;9.55;100.00
22930;BME280;11630;42.660;23.292;2023-04-12T00:26:11;68590.16;;;9.58;100.00
22930;BME280;11630;42.660;23.292;2023-04-12T00:28:42;68587.70;;;9.54;100.00
22930;BME280;11630;42.660;23.292;2023-04-12T00:31:12;68591.77;;;9.57;100.00
22930;BME280;11630;42.660;23.292;2023-04-12T00:33:42;68598.02;;;9.61;100.00
22930;BME280;11630;42.660;23.292;2023-04-12T00:36:13;68595.85;;;9.64;100.00
22930;BME280;11630;42.660;23.292;2023-04-12T00:38:44;68601.01;;;9.65;100.00
22930;BME280;11630;42.660;23.292;2023-04-12T00:41:16;68600.20;;;9.66;100.00
22930;BME280;11630;42.660;23.292;2023-04-12T00:43:46;68598.02;;;9.61;100.00
22930;BME280;11630;42.660;23.292;2023-04-12T00:46:17;68587.45;;;9.60;100.00
22930;BME280;11630;42.660;23.292;2023-04-12T00:48:48;68592.31;;;9.60;100.00
22930;BME280;11630;42.660;23.292;2023-04-12T00:51:19;68597.73;;;9.62;100.00
22930;BME280;11630;42.660;23.292;2023-04-12T00:53:50;68594.50;;;9.64;100.00
22930;BME280;11630;42.660;23.292;2023-04-12T00:56:20;68589.89;;;9.61;100.00
22930;BME280;11630;42.660;23.292;2023-04-12T00:58:51;68589.86;;;9.56;100.00
22930;BME280;11630;42.660;23.292;2023-04-12T01:01:22;68589.59;;;9.57;100.00
22930;BME280;11630;42.660;23.292;2023-04-12T01:03:54;68590.16;;;9.60;100.00
22930;BME280;11630;42.660;23.292;2023-04-12T01:09:34;68586.89;;;9.55;100.00
22930;BME280;11630;42.660;23.292;2023-04-12T01:12:33;68588.51;;;9.56;100.00
22930;BME280;11630;42.660;23.292;2023-04-12T01:15:08;68590.69;;;9.56;100.00
22930;BME280;11630;42.660;23.292;2023-04-12T01:20:14;68589.59;;;9.57;100.00
22930;BME280;11630;42.660;23.292;2023-04-12T01:23:05;68585.27;;;9.56;100.00
22930;BME280;11630;42.660;23.292;2023-04-12T01:28:26;68579.28;;;9.50;100.00
22930;BME280;11630;42.660;23.292;2023-04-12T01:30:54;68580.11;;;9.52;100.00
22930;BME280;11630;42.660;23.292;2023-04-12T01:33:25;68584.17;;;9.52;100.00
22930;BME280;11630;42.660;23.292;2023-04-12T01:35:59;68584.45;;;9.56;100.00
22930;BME280;11630;42.660;23.292;2023-04-12T01:38:31;68588.24;;;9.57;100.00
22930;BME280;11630;42.660;23.292;2023-04-12T01:41:03;68590.42;;;9.57;100.00
22930;BME280;11630;42.660;23.292;2023-04-12T01:43:39;68584.70;;;9.55;100.00
22930;BME280;11630;42.660;23.292;2023-04-12T01:46:07;68580.38;;;9.51;100.00
22930;BME280;11630;42.660;23.292;2023-04-12T01:48:38;68583.08;;;9.49;100.00
22930;BME280;11630;42.660;23.292;2023-04-12T01:54:00;68580.91;;;9.49;100.00
22930;BME280;11630;42.660;23.292;2023-04-12T01:56:32;68578.19;;;9.47;100.00
22930;BME280;11630;42.660;23.292;2023-04-12T01:59:04;68578.74;;;9.47;100.00
22930;BME280;11630;42.660;23.292;2023-04-12T02:01:36;68583.08;;;9.49;100.00
22930;BME280;11630;42.660;23.292;2023-04-12T02:04:06;68576.83;;;9.47;100.00
22930;BME280;11630;42.660;23.292;2023-04-12T02:06:38;68585.53;;;9.52;100.00
22930;BME280;11630;42.660;23.292;2023-04-12T02:09:08;68578.45;;;9.48;100.00
22930;BME280;11630;42.660;23.292;2023-04-12T02:11:38;68583.88;;;9.48;100.00
22930;BME280;11630;42.660;23.292;2023-04-12T02:14:10;68577.92;;;9.48;100.00
22930;BME280;11630;42.660;23.292;2023-04-12T02:16:44;68578.48;;;9.51;100.00
22930;BME280;11630;42.660;23.292;2023-04-12T02:19:13;68585.53;;;9.52;100.00
22930;BME280;11630;42.660;23.292;2023-04-12T02:21:46;68584.44;;;9.54;100.00
22930;BME280;11630;42.660;23.292;2023-04-12T02:24:17;68588.23;;;9.52;100.00
22930;BME280;11630;42.660;23.292;2023-04-12T02:26:48;68583.91;;;9.51;100.00
22930;BME280;11630;42.660;23.292;2023-04-12T02:29:19;68583.09;;;9.54;100.00
22930;BME280;11630;42.660;23.292;2023-04-12T02:31:50;68579.81;;;9.48;100.00
22930;BME280;11630;42.660;23.292;2023-04-12T02:34:21;68585.27;;;9.53;100.00
22930;BME280;11630;42.660;23.292;2023-04-12T02:36:52;68584.44;;;9.54;100.00
22930;BME280;11630;42.660;23.292;2023-04-12T02:39:23;68580.64;;;9.50;100.00
22930;BME280;11630;42.660;23.292;2023-04-12T02:41:53;68582.25;;;9.49;100.00
22930;BME280;11630;42.660;23.292;2023-04-12T02:44:31;68582.52;;;9.48;100.00
22930;BME280;11630;42.660;23.292;2023-04-12T02:46:58;68573.59;;;9.46;100.00
22930;BME280;11630;42.660;23.292;2023-04-12T02:49:29;68579.28;;;9.48;100.00
22930;BME280;11630;42.660;23.292;2023-04-12T02:52:00;68575.47;;;9.42;100.00
22930;BME280;11630;42.660;23.292;2023-04-12T02:54:31;68573.30;;;9.42;100.00
22930;BME280;11630;42.660;23.292;2023-04-12T02:57:04;68577.09;;;9.46;100.00
22930;BME280;11630;42.660;23.292;2023-04-12T02:59:35;68580.38;;;9.51;100.00
22930;BME280;11630;42.660;23.292;2023-04-12T03:02:06;68577.92;;;9.45;100.00
22930;BME280;11630;42.660;23.292;2023-04-12T03:04:36;68584.44;;;9.51;100.00
22930;BME280;11630;42.660;23.292;2023-04-12T03:07:07;68587.70;;;9.54;100.00
22930;BME280;11630;42.660;23.292;2023-04-12T03:09:37;68586.88;;;9.52;100.00
22930;BME280;11630;42.660;23.292;2023-04-12T03:12:09;68588.80;;;9.60;100.00
22930;BME280;11630;42.660;23.292;2023-04-12T03:14:39;68596.67;;;9.64;100.00
22930;BME280;11630;42.660;23.292;2023-04-12T03:17:10;68589.89;;;9.61;100.00
22930;BME280;11630;42.660;23.292;2023-04-12T03:19:41;68596.94;;;9.65;100.00
22930;BME280;11630;42.660;23.292;2023-04-12T03:22:12;68608.88;;;9.71;100.00
22930;BME280;11630;42.660;23.292;2023-04-12T03:24:42;68601.02;;;9.70;100.00
22930;BME280;11630;42.660;23.292;2023-04-12T03:27:13;68611.59;;;9.74;100.00
22930;BME280;11630;42.660;23.292;2023-04-12T03:29:43;68605.91;;;9.72;100.00
22930;BME280;11630;42.660;23.292;2023-04-12T03:32:13;68599.95;;;9.69;100.00
22930;BME280;11630;42.660;23.292;2023-04-12T03:34:44;68597.50;;;9.68;100.00
22930;BME280;11630;42.660;23.292;2023-04-12T03:37:14;68610.53;;;9.75;100.00
22930;BME280;11630;42.660;23.292;2023-04-12T03:39:45;68598.30;;;9.65;100.00
22930;BME280;11630;42.660;23.292;2023-04-12T03:42:16;68597.47;;;9.63;100.00
22930;BME280;11630;42.660;23.292;2023-04-12T03:44:47;68600.20;;;9.66;100.00
22930;BME280;11630;42.660;23.292;2023-04-12T03:47:18;68599.91;;;9.64;100.00
22930;BME280;11630;42.660;23.292;2023-04-12T03:49:48;68601.02;;;9.68;100.00
22930;BME280;11630;42.660;23.292;2023-04-12T03:52:19;68606.46;;;9.73;100.00
22930;BME280;11630;42.660;23.292;2023-04-12T03:54:50;68599.66;;;9.68;100.00
22930;BME280;11630;42.660;23.292;2023-04-12T03:57:21;68601.01;;;9.65;100.00
22930;BME280;11630;42.660;23.292;2023-04-12T03:59:53;68599.66;;;9.65;100.00
22930;BME280;11630;42.660;23.292;2023-04-12T04:02:25;68596.67;;;9.61;100.00
22930;BME280;11630;42.660;23.292;2023-04-12T04:04:56;68585.80;;;9.56;100.00
22930;BME280;11630;42.660;23.292;2023-04-12T04:07:27;68589.33;;;9.58;100.00
22930;BME280;11630;42.660;23.292;2023-04-12T04:09:58;68583.35;;;9.55;100.00
22930;BME280;11630;42.660;23.292;2023-04-12T04:12:29;68593.95;;;9.61;100.00
22930;BME280;11630;42.660;23.292;2023-04-12T04:15:00;68594.76;;;9.61;100.00
22930;BME280;11630;42.660;23.292;2023-04-12T04:17:31;68598.03;;;9.64;100.00
22930;BME280;11630;42.660;23.292;2023-04-12T04:20:02;68593.95;;;9.61;100.00
22930;BME280;11630;42.660;23.292;2023-04-12T04:22:34;68583.91;;;9.56;100.00
22930;BME280;11630;42.660;23.292;2023-04-12T04:25:05;68590.16;;;9.60;100.00
22930;BME280;11630;42.660;23.292;2023-04-12T04:27:35;68585.00;;;9.54;100.00
22930;BME280;11630;42.660;23.292;2023-04-12T04:30:08;68585.00;;;9.54;100.00
22930;BME280;11630;42.660;23.292;2023-04-12T04:32:39;68585.80;;;9.51;100.00
22930;BME280;11630;42.660;23.292;2023-04-12T04:35:09;68588.24;;;9.57;100.00
22930;BME280;11630;42.660;23.292;2023-04-12T04:37:40;68599.65;;;9.63;100.00
22930;BME280;11630;42.660;23.292;2023-04-12T04:40:12;68585.53;;;9.57;100.00
22930;BME280;11630;42.660;23.292;2023-04-12T04:42:42;68581.73;;;9.51;100.00
22930;BME280;11630;42.660;23.292;2023-04-12T04:45:13;68594.22;;;9.60;100.00
22930;BME280;11630;42.660;23.292;2023-04-12T04:47:44;68585.52;;;9.50;100.00
22930;BME280;11630;42.660;23.292;2023-04-12T04:50:14;68577.13;;;9.51;100.00
22930;BME280;11630;42.660;23.292;2023-04-12T04:52:45;68594.48;;;9.59;100.00
22930;BME280;11630;42.660;23.292;2023-04-12T04:55:16;68586.06;;;9.55;100.00
22930;BME280;11630;42.660;23.292;2023-04-12T04:57:46;68585.52;;;9.50;100.00
22930;BME280;11630;42.660;23.292;2023-04-12T05:00:18;68585.80;;;9.51;100.00
22930;BME280;11630;42.660;23.292;2023-04-12T05:02:48;68584.70;;;9.53;100.00
22930;BME280;11630;42.660;23.292;2023-04-12T05:05:18;68589.06;;;9.54;100.00
22930;BME280;11630;42.660;23.292;2023-04-12T05:07:49;68582.81;;;9.50;100.00
22930;BME280;11630;42.660;23.292;2023-04-12T05:10:20;68578.19;;;9.49;100.00
22930;BME280;11630;42.660;23.292;2023-04-12T05:12:51;68576.56;;;9.45;100.00
22930;BME280;11630;42.660;23.292;2023-04-12T05:15:22;68582.52;;;9.48;100.00
22930;BME280;11630;42.660;23.292;2023-04-12T05:17:53;68584.45;;;9.56;100.00
22930;BME280;11630;42.660;23.292;2023-04-12T05:20:24;68589.06;;;9.59;100.00
22930;BME280;11630;42.660;23.292;2023-04-12T05:22:55;68591.52;;;9.58;100.00
22930;BME280;11630;42.660;23.292;2023-04-12T05:25:25;68583.08;;;9.51;100.00
22930;BME280;11630;42.660;23.292;2023-04-12T05:27:57;68583.34;;;9.50;100.00
22930;BME280;11630;42.660;23.292;2023-04-12T05:30:27;68602.66;;;9.69;100.00
22930;BME280;11630;42.660;23.292;2023-04-12T05:32:58;68586.63;;;9.58;99.54
22930;BME280;11630;42.660;23.292;2023-04-12T05:35:30;68589.03;;;9.52;99.05
22930;BME280;11630;42.660;23.292;2023-04-12T05:37:59;68581.98;;;9.48;98.71
22930;BME280;11630;42.660;23.292;2023-04-12T05:40:30;68586.89;;;9.57;98.57
22930;BME280;11630;42.660;23.292;2023-04-12T05:43:00;68577.66;;;9.49;97.62
22930;BME280;11630;42.660;23.292;2023-04-12T05:45:31;68577.66;;;9.46;97.99
22930;BME280;11630;42.660;23.292;2023-04-12T05:48:02;68587.97;;;9.56;97.34
22930;BME280;11630;42.660;23.292;2023-04-12T05:50:33;68580.08;;;9.45;96.34
22930;BME280;11630;42.660;23.292;2023-04-12T05:53:04;68576.00;;;9.37;95.52
22930;BME280;11630;42.660;23.292;2023-04-12T05:55:35;68576.00;;;9.42;95.37
22930;BME280;11630;42.660;23.292;2023-04-12T05:58:05;68577.09;;;9.43;95.26
22930;BME280;11630;42.660;23.292;2023-04-12T06:00:37;68573.86;;;9.45;94.66
22930;BME280;11630;42.660;23.292;2023-04-12T06:03:08;68575.21;;;9.45;93.50
22930;BME280;11630;42.660;23.292;2023-04-12T06:05:40;68574.38;;;9.41;93.32
22930;BME280;11630;42.660;23.292;2023-04-12T06:08:10;68577.91;;;9.43;93.43
22930;BME280;11630;42.660;23.292;2023-04-12T06:10:42;68570.84;;;9.36;93.11
22930;BME280;11630;42.660;23.292;2023-04-12T06:13:14;68559.16;;;9.24;94.00
22930;BME280;11630;42.660;23.292;2023-04-12T06:15:44;68551.04;;;9.24;94.25
22930;BME280;11630;42.660;23.292;2023-04-12T06:18:15;68550.22;;;9.22;94.63
22930;BME280;11630;42.660;23.292;2023-04-12T06:20:46;68548.30;;;9.19;95.34
22930;BME280;11630;42.660;23.292;2023-04-12T06:23:18;68541.52;;;9.15;94.83
22930;BME280;11630;42.660;23.292;2023-04-12T06:25:48;68552.39;;;9.24;95.15
22930;BME280;11630;42.660;23.292;2023-04-12T06:28:19;68551.02;;;9.22;95.50
22930;BME280;11630;42.660;23.292;2023-04-12T06:30:49;68550.48;;;9.24;96.17
22930;BME280;11630;42.660;23.292;2023-04-12T06:33:21;68566.77;;;9.31;96.18
22930;BME280;11630;42.660;23.292;2023-04-12T06:35:52;68579.28;;;9.50;95.81
22930;BME280;11630;42.660;23.292;2023-04-12T06:38:23;68579.01;;;9.46;95.85
22930;BME280;11630;42.660;23.292;2023-04-12T06:40:54;68588.23;;;9.52;94.65
22930;BME280;11630;42.660;23.292;2023-04-12T06:43:24;68571.12;;;9.40;94.09
22930;BME280;11630;42.660;23.292;2023-04-12T06:45:55;68592.58;;;9.56;93.77
22930;BME280;11630;42.660;23.292;2023-04-12T06:48:26;68597.77;;;9.67;93.31
22930;BME280;11630;42.660;23.292;2023-04-12T06:50:57;68607.26;;;9.72;93.26
22930;BME280;11630;42.660;23.292;2023-04-12T06:53:28;68609.72;;;9.81;93.11
22930;BME280;11630;42.660;23.292;2023-04-12T06:56:03;68614.60;;;9.80;92.78
22930;BME280;11630;42.660;23.292;2023-04-12T06:58:33;68602.09;;;9.66;92.84
22930;BME280;11630;42.660;23.292;2023-04-12T07:01:11;68603.72;;;9.70;93.08
22930;BME280;11630;42.660;23.292;2023-04-12T07:03:43;68610.53;;;9.75;92.58
22930;BME280;11630;42.660;23.292;2023-04-12T07:06:13;68606.47;;;9.75;92.38
22930;BME280;11630;42.660;23.292;2023-04-12T07:08:44;68603.20;;;9.75;91.96
22930;BME280;11630;42.660;23.292;2023-04-12T07:11:15;68635.83;;;9.99;91.44
22930;BME280;11630;42.660;23.292;2023-04-12T07:13:46;68670.64;;;10.34;91.07
22930;BME280;11630;42.660;23.292;2023-04-12T07:16:18;68703.53;;;10.58;88.82
22930;BME280;11630;42.660;23.292;2023-04-12T07:18:48;68689.11;;;10.46;88.96
22930;BME280;11630;42.660;23.292;2023-04-12T07:21:20;68660.02;;;10.23;89.60
22930;BME280;11630;42.660;23.292;2023-04-12T07:23:51;68688.84;;;10.47;89.00
22930;BME280;11630;42.660;23.292;2023-04-12T07:26:22;68637.45;;;10.01;89.57
22930;BME280;11630;42.660;23.292;2023-04-12T07:28:53;68647.77;;;10.08;90.39
22930;BME280;11630;42.660;23.292;2023-04-12T07:31:24;68629.00;;;9.92;91.82
22930;BME280;11630;42.660;23.292;2023-04-12T07:33:54;68613.52;;;9.82;92.67
22930;BME280;11630;42.660;23.292;2023-04-12T07:36:25;68604.81;;;9.69;92.12
22930;BME280;11630;42.660;23.292;2023-04-12T07:38:56;68599.69;;;9.73;92.01
22930;BME280;11630;42.660;23.292;2023-04-12T07:41:28;68625.48;;;9.90;91.27
22930;BME280;11630;42.660;23.292;2023-04-12T07:43:58;68658.66;;;10.13;89.79
22930;BME280;11630;42.660;23.292;2023-04-12T07:46:28;68678.78;;;10.39;88.72
22930;BME280;11630;42.660;23.292;2023-04-12T07:48:59;68696.19;;;10.52;88.07
22930;BME280;11630;42.660;23.292;2023-04-12T07:51:30;68728.30;;;10.86;86.67
22930;BME280;11630;42.660;23.292;2023-04-12T07:54:01;68733.17;;;10.88;85.92
22930;BME280;11630;42.660;23.292;2023-04-12T07:56:35;68740.78;;;10.90;85.41
22930;BME280;11630;42.660;23.292;2023-04-12T07:59:05;68734.00;;;10.88;80.99
22930;BME280;11630;42.660;23.292;2023-04-12T08:01:36;68731.81;;;10.83;78.51
22930;BME280;11630;42.660;23.292;2023-04-12T08:04:07;68728.56;;;10.83;78.19
22930;BME280;11630;42.660;23.292;2023-04-12T08:06:38;68733.46;;;10.90;78.38
22930;BME280;11630;42.660;23.292;2023-04-12T08:09:09;68728.01;;;10.87;77.63
22930;BME280;11630;42.660;23.292;2023-04-12T08:11:40;68725.84;;;10.85;77.51
22930;BME280;11630;42.660;23.292;2023-04-12T08:14:10;68733.17;;;10.83;76.05
22930;BME280;11630;42.660;23.292;2023-04-12T08:16:41;68706.52;;;10.67;71.01
22930;BME280;11630;42.660;23.292;2023-04-12T08:19:12;68685.86;;;10.43;69.36
22930;BME280;11630;42.660;23.292;2023-04-12T08:21:42;68694.27;;;10.52;68.72
22930;BME280;11630;42.660;23.292;2023-04-12T08:24:13;68715.23;;;10.74;66.59
22930;BME280;11630;42.660;23.292;2023-04-12T08:26:44;68750.61;;;11.09;63.01
22930;BME280;11630;42.660;23.292;2023-04-12T08:29:15;68852.68;;;11.96;60.96
22930;BME280;11630;42.660;23.292;2023-04-12T08:31:45;68888.08;;;12.28;58.64
22930;BME280;11630;42.660;23.292;2023-04-12T08:34:16;68955.42;;;12.89;55.76
22930;BME280;11630;42.660;23.292;2023-04-12T08:36:47;68936.31;;;12.76;55.20
22930;BME280;11630;42.660;23.292;2023-04-12T08:39:18;68950.48;;;12.87;54.84
22930;BME280;11630;42.660;23.292;2023-04-12T08:41:49;68897.07;;;12.35;55.71
22930;BME280;11630;42.660;23.292;2023-04-12T08:44:37;68866.03;;;12.10;55.29
22930;BME280;11630;42.660;23.292;2023-04-12T08:46:54;68951.87;;;12.89;54.14
22930;BME280;11630;42.660;23.292;2023-04-12T08:49:24;68954.86;;;12.88;52.13
22930;BME280;11630;42.660;23.292;2023-04-12T08:52:04;68937.13;;;12.71;53.02
22930;BME280;11630;42.660;23.292;2023-04-12T08:54:37;68927.33;;;12.64;54.83
22930;BME280;11630;42.660;23.292;2023-04-12T08:57:08;68869.29;;;12.08;56.39
22930;BME280;11630;42.660;23.292;2023-04-12T08:59:41;68902.80;;;12.39;56.84
22930;BME280;11630;42.660;23.292;2023-04-12T09:02:12;68895.45;;;12.31;57.47
22930;BME280;11630;42.660;23.292;2023-04-12T09:04:52;68857.05;;;12.03;56.66
22930;BME280;11630;42.660;23.292;2023-04-12T09:07:23;68910.97;;;12.47;55.55
22930;BME280;11630;42.660;23.292;2023-04-12T09:09:57;68876.11;;;12.20;55.47
22930;BME280;11630;42.660;23.292;2023-04-12T09:12:27;68957.05;;;12.90;53.96
22930;BME280;11630;42.660;23.292;2023-04-12T09:15:14;68929.23;;;12.67;53.79
22930;BME280;11630;42.660;23.292;2023-04-12T09:17:45;68879.09;;;12.22;54.92
22930;BME280;11630;42.660;23.292;2023-04-12T09:20:22;68912.34;;;12.49;53.35
22930;BME280;11630;42.660;23.292;2023-04-12T09:22:53;69012.39;;;13.39;49.40
22930;BME280;11630;42.660;23.292;2023-04-12T09:25:38;69067.47;;;13.84;47.67
22930;BME280;11630;42.660;23.292;2023-04-12T09:28:29;69027.39;;;13.52;48.00
22930;BME280;11630;42.660;23.292;2023-04-12T09:31:00;69002.58;;;13.28;48.14
22930;BME280;11630;42.660;23.292;2023-04-12T09:33:39;69031.20;;;13.60;46.36
22930;BME280;11630;42.660;23.292;2023-04-12T09:36:10;69070.74;;;13.92;45.58
22930;BME280;11630;42.660;23.292;2023-04-12T09:38:59;69149.63;;;14.68;44.37
22930;BME280;11630;42.660;23.292;2023-04-12T09:41:29;69113.86;;;14.34;44.13
22930;BME280;11630;42.660;23.292;2023-04-12T09:44:00;69101.05;;;14.21;43.93
22930;BME280;11630;42.660;23.292;2023-04-12T09:46:32;68990.31;;;13.23;44.92
22930;BME280;11630;42.660;23.292;2023-04-12T09:49:03;69085.20;;;14.09;44.19
22930;BME280;11630;42.660;23.292;2023-04-12T09:51:35;69013.73;;;13.47;44.35
22930;BME280;11630;42.660;23.292;2023-04-12T09:54:08;69101.59;;;14.17;44.12
22930;BME280;11630;42.660;23.292;2023-04-12T09:56:40;69156.16;;;14.76;43.40
22930;BME280;11630;42.660;23.292;2023-04-12T09:59:12;69225.00;;;15.39;42.93
22930;BME280;11630;42.660;23.292;2023-04-12T10:01:43;69322.27;;;16.22;41.53
22930;BME280;11630;42.660;23.292;2023-04-12T10:04:15;69150.99;;;14.68;41.62
22930;BME280;11630;42.660;23.292;2023-04-12T10:06:46;69172.03;;;14.76;37.89
22930;BME280;11630;42.660;23.292;2023-04-12T10:09:18;69167.64;;;14.82;36.57
22930;BME280;11630;42.660;23.292;2023-04-12T10:11:49;69165.73;;;14.76;37.23
22930;BME280;11630;42.660;23.292;2023-04-12T10:14:21;69190.84;;;15.02;35.44
22930;BME280;11630;42.660;23.292;2023-04-12T10:16:53;69233.47;;;15.40;34.39
22930;BME280;11630;42.660;23.292;2023-04-12T10:19:25;69188.38;;;15.01;34.20
22930;BME280;11630;42.660;23.292;2023-04-12T10:21:57;69313.00;;;16.09;33.72
22930;BME280;11630;42.660;23.292;2023-04-12T10:24:28;69369.33;;;16.58;33.08
22930;BME280;11630;42.660;23.292;2023-04-12T10:26:59;69327.20;;;16.29;33.02
22930;BME280;11630;42.660;23.292;2023-04-12T10:29:32;69501.47;;;17.81;32.14
22930;BME280;11630;42.660;23.292;2023-04-12T10:32:23;69491.05;;;17.77;32.15
22930;BME280;11630;42.660;23.292;2023-04-12T10:34:59;69355.08;;;16.52;33.38
22930;BME280;11630;42.660;23.292;2023-04-12T10:37:59;69315.17;;;16.16;34.62
22930;BME280;11630;42.660;23.292;2023-04-12T10:40:30;69351.27;;;16.51;34.75
22930;BME280;11630;42.660;23.292;2023-04-12T10:43:25;69341.42;;;16.42;33.35
22930;BME280;11630;42.660;23.292;2023-04-12T10:45:56;69293.30;;;16.01;33.68
22930;BME280;11630;42.660;23.292;2023-04-12T10:51:18;69333.23;;;16.30;32.28
22930;BME280;11630;42.660;23.292;2023-04-12T10:56:39;69445.38;;;17.32;32.21
22930;BME280;11630;42.660;23.292;2023-04-12T10:59:13;69331.58;;;16.33;31.87
22930;BME280;11630;42.660;23.292;2023-04-12T11:02:07;69316.78;;;16.22;31.60
22930;BME280;11630;42.660;23.292;2023-04-12T11:05:01;69279.34;;;15.92;32.42
22930;BME280;11630;42.660;23.292;2023-04-12T11:07:10;69151.27;;;14.74;31.81
22930;BME280;11630;42.660;23.292;2023-04-12T11:09:43;69234.55;;;15.46;30.84
22930;BME280;11630;42.660;23.292;2023-04-12T11:12:15;69248.20;;;15.61;29.28
22930;BME280;11630;42.660;23.292;2023-04-12T11:14:50;69296.02;;;16.04;28.28
22930;BME280;11630;42.660;23.292;2023-04-12T11:17:22;69353.45;;;16.51;27.66
22930;BME280;11630;42.660;23.292;2023-04-12T11:20:00;69342.78;;;16.45;27.21
22930;BME280;11630;42.660;23.292;2023-04-12T11:22:31;69341.97;;;16.40;28.54
22930;BME280;11630;42.660;23.292;2023-04-12T11:25:03;69429.20;;;17.18;27.77
22930;BME280;11630;42.660;23.292;2023-04-12T11:27:34;69382.16;;;16.78;28.24
22930;BME280;11630;42.660;23.292;2023-04-12T11:30:06;69392.28;;;16.86;28.39
22930;BME280;11630;42.660;23.292;2023-04-12T11:32:37;69486.97;;;17.67;27.48
22930;BME280;11630;42.660;23.292;2023-04-12T11:35:08;69279.62;;;15.91;28.57
22930;BME280;11630;42.660;23.292;2023-04-12T11:37:38;69355.09;;;16.50;28.61
22930;BME280;11630;42.660;23.292;2023-04-12T11:40:10;69342.50;;;16.46;28.93
22930;BME280;11630;42.660;23.292;2023-04-12T11:42:41;69359.73;;;16.58;27.00
22930;BME280;11630;42.660;23.292;2023-04-12T11:45:13;69421.80;;;17.15;27.01
22930;BME280;11630;42.660;23.292;2023-04-12T11:47:44;69487.76;;;17.74;26.48
22930;BME280;11630;42.660;23.292;2023-04-12T11:50:26;69430.84;;;17.25;26.62
22930;BME280;11630;42.660;23.292;2023-04-12T11:52:46;69467.27;;;17.49;26.98
22930;BME280;11630;42.660;23.292;2023-04-12T11:55:17;69263.53;;;15.68;28.04
22930;BME280;11630;42.660;23.292;2023-04-12T11:57:52;69308.31;;;16.11;27.94
22930;BME280;11630;42.660;23.292;2023-04-12T12:00:25;69381.33;;;16.79;27.92
22930;BME280;11630;42.660;23.292;2023-04-12T12:02:54;69353.16;;;16.57;28.33
22930;BME280;11630;42.660;23.292;2023-04-12T12:05:25;69379.45;;;16.66;28.32
22930;BME280;11630;42.660;23.292;2023-04-12T12:07:56;69405.14;;;16.96;27.92
22930;BME280;11630;42.660;23.292;2023-04-12T12:10:27;69539.50;;;18.20;27.92
22930;BME280;11630;42.660;23.292;2023-04-12T12:12:58;69490.23;;;17.75;27.56
22930;BME280;11630;42.660;23.292;2023-04-12T12:15:30;69419.09;;;17.08;27.82
22930;BME280;11630;42.660;23.292;2023-04-12T12:18:00;69381.61;;;16.75;27.85
22930;BME280;11630;42.660;23.292;2023-04-12T12:20:31;69376.40;;;16.79;28.78
22930;BME280;11630;42.660;23.292;2023-04-12T12:23:02;69329.09;;;16.35;29.12
22930;BME280;11630;42.660;23.292;2023-04-12T12:25:33;69368.77;;;16.62;29.00
22930;BME280;11630;42.660;23.292;2023-04-12T12:28:03;69311.05;;;16.11;29.59
22930;BME280;11630;42.660;23.292;2023-04-12T12:30:36;69451.92;;;17.40;29.15
22930;BME280;11630;42.660;23.292;2023-04-12T12:33:06;69466.17;;;17.48;28.50
22930;BME280;11630;42.660;23.292;2023-04-12T12:35:37;69475.19;;;17.60;28.62
22930;BME280;11630;42.660;23.292;2023-04-12T12:38:09;69431.12;;;17.19;27.96
22930;BME280;11630;42.660;23.292;2023-04-12T12:40:40;69425.66;;;17.14;28.22
22930;BME280;11630;42.660;23.292;2023-04-12T12:43:16;69405.13;;;16.99;28.82
22930;BME280;11630;42.660;23.292;2023-04-12T12:45:43;69500.39;;;17.78;28.16
22930;BME280;11630;42.660;23.292;2023-04-12T12:48:14;69316.79;;;16.20;28.91
22930;BME280;11630;42.660;23.292;2023-04-12T12:50:45;69401.03;;;16.94;28.64
22930;BME280;11630;42.660;23.292;2023-04-12T12:53:17;69357.02;;;16.48;28.19
22930;BME280;11630;42.660;23.292;2023-04-12T12:55:47;69396.39;;;16.89;27.63
22930;BME280;11630;42.660;23.292;2023-04-12T12:58:19;69397.47;;;16.92;27.41
22930;BME280;11630;42.660;23.292;2023-04-12T13:00:49;69375.31;;;16.76;28.27
22930;BME280;11630;42.660;23.292;2023-04-12T13:03:20;69370.39;;;16.66;28.78
22930;BME280;11630;42.660;23.292;2023-04-12T13:05:51;69475.17;;;17.63;28.44
22930;BME280;11630;42.660;23.292;2023-04-12T13:08:23;69438.23;;;17.25;28.47
22930;BME280;11630;42.660;23.292;2023-04-12T13:10:56;69540.91;;;18.15;28.27
22930;BME280;11630;42.660;23.292;2023-04-12T13:13:27;69432.20;;;17.25;28.22
22930;BME280;11630;42.660;23.292;2023-04-12T13:15:56;69424.53;;;17.20;29.08
22930;BME280;11630;42.660;23.292;2023-04-12T13:18:28;69402.67;;;16.95;28.74
22930;BME280;11630;42.660;23.292;2023-04-12T13:20:59;69446.72;;;17.37;28.70
22930;BME280;11630;42.660;23.292;2023-04-12T13:23:30;69403.20;;;16.96;29.30
22930;BME280;11630;42.660;23.292;2023-04-12T13:26:02;69459.03;;;17.49;29.18
22930;BME280;11630;42.660;23.292;2023-04-12T13:28:33;69433.02;;;17.24;29.34
22930;BME280;11630;42.660;23.292;2023-04-12T13:31:04;69388.43;;;16.88;29.57